Time;durP1;ratioP1;P1;durP2;ratioP2;P2;SDS_P1;SDS_P2;PMS_P1;PMS_P2;Temp;Humidity;BMP_temperature;BMP_pressure;BME280_temperature;BME280_humidity;BME280_pressure;Samples;Min_cycle;Max_cycle;Signal;HPM_P1;HPM_P2
2022/07/14 00:00:33;;;;;;;;;;;;;;;23.83;47.11;99334.00;4997543;28;19949;-79
2022/07/14 00:02:58;;;;;;;;;;;;;;;23.83;47.04;99341.38;5015024;28;20252;-79
2022/07/14 00:05:23;;;;;;;;;;;;;;;23.83;47.11;99341.38;5014784;28;19952;-81
2022/07/14 00:07:48;;;;;;;;;;;;;;;23.84;46.96;99338.34;5014888;28;19920;-78
2022/07/14 00:10:14;;;;;;;;;;;;;;;23.83;47.04;99334.00;5015052;28;19913;-79
2022/07/14 00:12:39;;;;;;;;;;;;;;;23.85;47.17;99339.16;5014935;28;19924;-79
2022/07/14 00:15:05;;;;;;;;;;;;;;;23.84;47.09;99335.63;4997294;28;20284;-79
2022/07/14 00:17:30;;;;;;;;;;;;;;;23.80;47.19;99329.94;5014946;28;20000;-79
2022/07/14 00:19:55;;;;;;;;;;;;;;;23.81;47.16;99330.75;5014639;28;19921;-79
2022/07/14 00:22:21;;;;;;;;;;;;;;;23.80;46.99;99332.66;5014882;28;19929;-81
2022/07/14 00:24:46;;;;;;;;;;;;;;;23.79;47.14;99325.56;5014363;28;19917;-79
2022/07/14 00:27:11;;;;;;;;;;;;;;;23.78;46.94;99323.97;5014916;28;19917;-81
2022/07/14 00:29:37;;;;;;;;;;;;;;;23.81;46.86;99328.84;5014243;28;19921;-79
2022/07/14 00:32:02;;;;;;;;;;;;;;;23.80;46.88;99316.28;5014745;28;19914;-81
2022/07/14 00:34:28;;;;;;;;;;;;;;;23.82;46.83;99318.75;5014133;28;19929;-79
2022/07/14 00:36:53;;;;;;;;;;;;;;;23.81;46.67;99315.19;5014747;28;19914;-79
2022/07/14 00:39:18;;;;;;;;;;;;;;;23.84;46.65;99315.72;5018057;28;19913;-79
2022/07/14 00:41:43;;;;;;;;;;;;;;;23.81;46.93;99307.00;5017997;28;19917;-79
2022/07/14 00:44:09;;;;;;;;;;;;;;;23.80;46.69;99294.47;5018220;28;20369;-80
2022/07/14 00:46:36;;;;;;;;;;;;;;;23.81;46.84;99296.09;5017939;28;20000;-79
2022/07/14 00:49:01;;;;;;;;;;;;;;;23.80;46.65;99285.47;5018550;28;19943;-81
2022/07/14 00:51:26;;;;;;;;;;;;;;;23.79;46.46;99279.19;5017606;28;19921;-77
2022/07/14 00:53:58;;;;;;;;;;;;;;;23.78;46.55;99280.31;5018282;28;19914;-79
2022/07/14 00:56:23;;;;;;;;;;;;;;;23.79;46.64;99281.13;5017694;28;19913;-80
2022/07/14 00:58:48;;;;;;;;;;;;;;;23.78;46.60;99276.78;5017479;28;20386;-79
2022/07/14 01:01:14;;;;;;;;;;;;;;;23.79;46.47;99276.47;5016448;28;19929;-84
2022/07/14 01:03:39;;;;;;;;;;;;;;;23.79;46.36;99270.22;5017757;28;20285;-79
2022/07/14 01:06:04;;;;;;;;;;;;;;;23.80;46.33;99266.34;5017511;28;20390;-82
2022/07/14 01:08:30;;;;;;;;;;;;;;;23.79;46.33;99265.56;5017287;28;19929;-79
2022/07/14 01:10:55;;;;;;;;;;;;;;;23.77;46.27;99262.34;5017465;28;20004;-81
2022/07/14 01:13:20;;;;;;;;;;;;;;;23.75;46.54;99259.09;5016997;28;20415;-79
2022/07/14 01:15:45;;;;;;;;;;;;;;;23.77;46.31;99250.63;5018191;28;19920;-79
2022/07/14 01:18:11;;;;;;;;;;;;;;;23.74;46.39;99251.22;5017145;28;19913;-79
2022/07/14 01:20:41;;;;;;;;;;;;;;;23.76;46.27;99241.59;5017135;28;19917;-79
2022/07/14 01:23:06;;;;;;;;;;;;;;;23.78;46.17;99233.94;5017325;28;19959;-82
2022/07/14 01:25:32;;;;;;;;;;;;;;;23.76;46.35;99238.09;5017048;28;19913;-79
2022/07/14 01:27:57;;;;;;;;;;;;;;;23.77;46.44;99235.06;5017727;28;19913;-83
2022/07/14 01:30:22;;;;;;;;;;;;;;;23.75;46.19;99237.28;5016954;28;19987;-79
2022/07/14 01:32:48;;;;;;;;;;;;;;;23.74;46.33;99235.66;5015792;28;19917;-82
2022/07/14 01:35:13;;;;;;;;;;;;;;;23.74;46.29;99235.66;5016841;28;19924;-79
2022/07/14 01:37:38;;;;;;;;;;;;;;;23.75;46.14;99240.00;5017044;28;19917;-81
2022/07/14 01:40:04;;;;;;;;;;;;;;;23.75;46.14;99233.72;5017611;28;19956;-78
2022/07/14 01:42:29;;;;;;;;;;;;;;;23.74;46.19;99227.47;5016901;28;19960;-80
2022/07/14 01:44:54;;;;;;;;;;;;;;;23.76;46.04;99230.69;5016950;28;19913;-77
2022/07/14 01:47:20;;;;;;;;;;;;;;;23.77;46.20;99234.25;5016900;28;19921;-80
2022/07/14 01:49:45;;;;;;;;;;;;;;;23.76;46.00;99227.97;5016840;28;19921;-80
2022/07/14 01:52:10;;;;;;;;;;;;;;;23.76;45.88;99227.97;5017078;28;20434;-81
2022/07/14 01:54:36;;;;;;;;;;;;;;;23.76;45.91;99227.97;5016542;28;19914;-79
2022/07/14 01:57:01;;;;;;;;;;;;;;;23.76;46.02;99227.97;5016864;28;19952;-82
2022/07/14 01:59:26;;;;;;;;;;;;;;;23.75;46.12;99220.91;5015118;28;19971;-79
2022/07/14 02:01:51;;;;;;;;;;;;;;;23.77;45.85;99220.63;5015405;28;20276;-79
2022/07/14 02:04:17;;;;;;;;;;;;;;;23.74;46.10;99213.84;5016597;28;19921;-79
2022/07/14 02:06:53;;;;;;;;;;;;;;;23.76;46.10;99216.25;5016497;28;20287;-79
2022/07/14 02:09:18;;;;;;;;;;;;;;;23.75;45.78;99215.47;5016965;28;19936;-82
2022/07/14 02:14:29;;;;;;;;;;;;;;;23.73;45.93;99204.06;5016410;28;19968;-80
2022/07/14 02:16:55;;;;;;;;;;;;;;;23.73;46.21;99197.75;5016767;28;19914;-80
2022/07/14 02:19:20;;;;;;;;;;;;;;;23.74;46.04;99200.19;5015655;28;19937;-79
2022/07/14 02:21:46;;;;;;;;;;;;;;;23.75;45.93;99198.25;5016468;28;19917;-78
2022/07/14 02:24:12;;;;;;;;;;;;;;;23.74;45.78;99193.94;5015079;28;19968;-78
2022/07/14 02:26:38;;;;;;;;;;;;;;;23.73;45.84;99190.41;5016095;28;19921;-78
2022/07/14 02:29:04;;;;;;;;;;;;;;;23.74;45.80;99183.03;5016387;28;20000;-80
2022/07/14 02:31:30;;;;;;;;;;;;;;;23.72;46.02;99183.31;5016246;28;19913;-79
2022/07/14 02:33:55;;;;;;;;;;;;;;;23.73;45.88;99181.41;5015942;28;19960;-82
2022/07/14 02:36:20;;;;;;;;;;;;;;;23.70;45.93;99179.28;5016068;28;20360;-79
2022/07/14 02:38:46;;;;;;;;;;;;;;;23.72;45.99;99179.81;5015618;28;20367;-81
2022/07/14 02:41:11;;;;;;;;;;;;;;;23.65;45.80;99160.31;5014427;28;19921;-79
2022/07/14 02:43:36;;;;;;;;;;;;;;;23.72;45.88;99166.97;5002233;28;20352;-80
2022/07/14 02:46:02;;;;;;;;;;;;;;;23.72;45.86;99166.16;4995899;28;19913;-79
2022/07/14 02:48:27;;;;;;;;;;;;;;;23.73;45.91;99170.50;4996128;28;19924;-81
2022/07/14 02:51:02;;;;;;;;;;;;;;;23.72;45.77;99157.97;4996245;28;20004;-78
2022/07/14 02:53:28;;;;;;;;;;;;;;;23.72;46.00;99166.97;4995999;28;19957;-79
2022/07/14 02:55:53;;;;;;;;;;;;;;;23.72;45.93;99161.50;4996070;28;19921;-79
2022/07/14 02:58:19;;;;;;;;;;;;;;;23.72;46.02;99164.22;4996165;28;19914;-79
2022/07/14 03:00:44;;;;;;;;;;;;;;;23.70;46.00;99161.00;4995369;28;19913;-82
2022/07/14 03:03:10;;;;;;;;;;;;;;;23.70;45.99;99158.28;4996231;28;19922;-81
2022/07/14 03:05:35;;;;;;;;;;;;;;;23.70;45.93;99147.38;4995513;28;19917;-81
2022/07/14 03:08:00;;;;;;;;;;;;;;;23.71;45.79;99148.97;4995637;28;19920;-79
2022/07/14 03:10:25;;;;;;;;;;;;;;;23.70;45.89;99139.19;4995737;28;19917;-82
2022/07/14 03:12:52;;;;;;;;;;;;;;;23.70;46.03;99141.91;4995479;28;19924;-79
2022/07/14 03:15:18;;;;;;;;;;;;;;;23.68;46.02;99140.59;4995482;28;19925;-82
2022/07/14 03:17:43;;;;;;;;;;;;;;;23.67;46.26;99139.78;4995338;28;19914;-79
2022/07/14 03:20:08;;;;;;;;;;;;;;;23.70;46.09;99141.91;4995737;28;19992;-82
2022/07/14 03:22:33;;;;;;;;;;;;;;;23.70;46.23;99131.00;4995659;28;20378;-79
2022/07/14 03:24:59;;;;;;;;;;;;;;;23.70;46.14;99131.00;4995588;28;20396;-80
2022/07/14 03:27:24;;;;;;;;;;;;;;;23.71;46.30;99137.25;4995244;28;19976;-79
2022/07/14 03:29:49;;;;;;;;;;;;;;;23.69;46.17;99140.28;4995195;28;19914;-81
2022/07/14 03:32:15;;;;;;;;;;;;;;;23.70;46.18;99143.81;4995480;28;19914;-79
2022/07/14 03:34:40;;;;;;;;;;;;;;;23.69;46.33;99140.28;4995381;28;20324;-80
2022/07/14 03:37:05;;;;;;;;;;;;;;;23.69;46.44;99134.84;4995444;28;19913;-77
2022/07/14 03:39:30;;;;;;;;;;;;;;;23.67;46.34;99134.34;4994949;28;19913;-81
2022/07/14 03:41:56;;;;;;;;;;;;;;;23.68;46.33;99121.50;5004308;28;19917;-79
2022/07/14 03:44:21;;;;;;;;;;;;;;;23.69;46.63;99123.94;5014678;28;19920;-82
2022/07/14 03:46:46;;;;;;;;;;;;;;;23.72;46.22;99123.31;5015663;28;19988;-78
2022/07/14 03:49:11;;;;;;;;;;;;;;;23.72;46.35;99123.31;5014651;28;19913;-79
2022/07/14 03:51:43;;;;;;;;;;;;;;;23.76;46.41;99118.84;5014839;28;19924;-78
2022/07/14 03:54:08;;;;;;;;;;;;;;;23.77;46.01;99115.03;5014768;28;19913;-78
2022/07/14 03:56:33;;;;;;;;;;;;;;;23.79;46.21;99106.53;5014697;28;19913;-78
2022/07/14 03:58:59;;;;;;;;;;;;;;;23.81;46.34;99116.06;5014810;28;20315;-79
2022/07/14 04:01:24;;;;;;;;;;;;;;;23.80;46.23;99117.16;5014811;28;19952;-80
2022/07/14 04:03:49;;;;;;;;;;;;;;;23.84;46.34;99113.84;5014689;28;19917;-78
2022/07/14 04:06:14;;;;;;;;;;;;;;;23.84;46.28;99119.31;5014701;28;19913;-82
2022/07/14 04:08:40;;;;;;;;;;;;;;;23.86;46.28;99111.63;5014591;28;19913;-78
2022/07/14 04:11:05;;;;;;;;;;;;;;;23.87;46.12;99107.75;5014880;28;19913;-82
2022/07/14 04:13:32;;;;;;;;;;;;;;;23.89;46.18;99116.47;5016863;28;19917;-78
2022/07/14 04:15:57;;;;;;;;;;;;;;;23.89;46.23;99111.00;5017949;28;19952;-80
2022/07/14 04:18:23;;;;;;;;;;;;;;;23.91;46.07;99117.75;5018256;28;19949;-77
2022/07/14 04:20:48;;;;;;;;;;;;;;;23.92;46.10;99115.81;5018306;28;19955;-80
2022/07/14 04:23:13;;;;;;;;;;;;;;;23.93;46.42;99117.44;5018303;28;20379;-79
2022/07/14 04:25:39;;;;;;;;;;;;;;;23.95;46.22;99117.94;5017981;28;19920;-79
2022/07/14 04:28:04;;;;;;;;;;;;;;;23.94;46.50;99113.59;5018289;28;19914;-81
2022/07/14 04:30:29;;;;;;;;;;;;;;;23.97;46.28;99111.06;5018566;28;19920;-79
2022/07/14 04:32:54;;;;;;;;;;;;;;;23.96;46.15;99109.44;5018120;28;19913;-81
2022/07/14 04:35:20;;;;;;;;;;;;;;;23.98;46.41;99109.16;5018119;28;19914;-78
2022/07/14 04:37:45;;;;;;;;;;;;;;;23.99;46.40;99116.19;5017900;28;19917;-79
2022/07/14 04:40:10;;;;;;;;;;;;;;;24.01;46.22;99116.72;5017817;28;19921;-79
2022/07/14 04:42:36;;;;;;;;;;;;;;;24.01;46.29;99108.53;5013422;28;19917;-78
2022/07/14 04:45:02;;;;;;;;;;;;;;;24.03;46.33;99116.41;4998288;28;19913;-79
2022/07/14 04:47:27;;;;;;;;;;;;;;;24.05;46.30;99114.97;4997867;28;20403;-80
2022/07/14 04:52:36;;;;;;;;;;;;;;;24.03;46.60;99110.97;4998481;28;19920;-79
2022/07/14 04:55:02;;;;;;;;;;;;;;;24.05;46.25;99114.19;4996534;28;19914;-82
2022/07/14 04:57:27;;;;;;;;;;;;;;;24.03;46.64;99109.03;4997564;28;19921;-78
2022/07/14 04:59:52;;;;;;;;;;;;;;;24.03;46.64;99111.75;4997823;28;19913;-81
2022/07/14 05:02:18;;;;;;;;;;;;;;;24.02;46.94;99117.53;4998518;28;20068;-76
2022/07/14 05:04:43;;;;;;;;;;;;;;;24.03;46.92;99117.22;4998300;28;19918;-78
2022/07/14 05:07:08;;;;;;;;;;;;;;;24.06;46.71;99111.16;4997945;28;20357;-78
2022/07/14 05:09:34;;;;;;;;;;;;;;;24.07;46.93;99112.75;4997938;28;19914;-78
2022/07/14 05:12:00;;;;;;;;;;;;;;;24.10;46.79;99119.53;4997870;28;19920;-79
2022/07/14 05:14:25;;;;;;;;;;;;;;;23.96;47.19;99117.63;4998131;28;19913;-78
2022/07/14 05:16:50;;;;;;;;;;;;;;;24.04;46.99;99115.28;4998271;28;20005;-79
2022/07/14 05:19:16;;;;;;;;;;;;;;;24.04;47.28;99107.91;4997802;28;19929;-79
2022/07/14 05:21:41;;;;;;;;;;;;;;;24.09;47.07;99110.50;4997716;28;19913;-79
2022/07/14 05:24:07;;;;;;;;;;;;;;;24.12;47.17;99111.81;4997704;28;19924;-81
2022/07/14 05:26:32;;;;;;;;;;;;;;;24.14;47.00;99107.66;4997551;28;20364;-76
2022/07/14 05:28:57;;;;;;;;;;;;;;;24.16;46.90;99102.72;4997782;28;19953;-78
2022/07/14 05:31:23;;;;;;;;;;;;;;;24.17;46.97;99098.88;4997138;28;20376;-78
2022/07/14 05:33:48;;;;;;;;;;;;;;;24.21;46.97;99100.97;4996436;28;20368;-78
2022/07/14 05:36:13;;;;;;;;;;;;;;;24.21;47.00;99095.53;4997702;28;19921;-78
2022/07/14 05:38:39;;;;;;;;;;;;;;;24.21;46.74;99096.31;4999991;28;19937;-79
2022/07/14 05:41:04;;;;;;;;;;;;;;;24.24;46.43;99101.16;5003631;28;19921;-79
2022/07/14 05:43:31;;;;;;;;;;;;;;;24.27;46.75;99099.75;5020824;28;20013;-78
2022/07/14 05:46:02;;;;;;;;;;;;;;;24.22;46.87;99102.59;5020753;28;19920;-80
2022/07/14 05:48:27;;;;;;;;;;;;;;;24.27;46.80;99097.03;5004035;28;19931;-78
2022/07/14 05:50:52;;;;;;;;;;;;;;;24.26;47.36;99095.41;5021532;28;20470;-78
2022/07/14 05:53:17;;;;;;;;;;;;;;;24.31;47.21;99096.06;5021398;28;19920;-78
2022/07/14 05:55:43;;;;;;;;;;;;;;;24.30;47.41;99096.38;5021080;28;19913;-79
2022/07/14 05:58:08;;;;;;;;;;;;;;;24.28;47.01;99095.88;5020839;28;19917;-80
2022/07/14 06:00:33;;;;;;;;;;;;;;;24.28;47.27;99098.63;5022018;28;19914;-78
2022/07/14 06:02:59;;;;;;;;;;;;;;;24.32;47.03;99092.22;5021203;28;20259;-78
2022/07/14 06:05:24;;;;;;;;;;;;;;;24.32;46.97;99085.97;5020743;28;19925;-78
2022/07/14 06:07:49;;;;;;;;;;;;;;;24.34;47.02;99090.00;5020889;28;19956;-76
2022/07/14 06:10:14;;;;;;;;;;;;;;;24.37;46.86;99088.59;5021645;28;19914;-78
2022/07/14 06:12:40;;;;;;;;;;;;;;;24.33;47.11;99093.03;5021165;28;20359;-79
2022/07/14 06:15:07;;;;;;;;;;;;;;;24.36;47.23;99086.97;5021433;28;19913;-76
2022/07/14 06:17:32;;;;;;;;;;;;;;;24.30;47.53;99088.19;5021723;28;19956;-78
2022/07/14 06:20:05;;;;;;;;;;;;;;;24.27;47.26;99088.84;5020215;28;19917;-79
2022/07/14 06:22:31;;;;;;;;;;;;;;;24.23;47.41;99082.38;5021362;28;19980;-78
2022/07/14 06:24:56;;;;;;;;;;;;;;;24.32;47.44;99080.53;5021372;28;19944;-77
2022/07/14 06:27:21;;;;;;;;;;;;;;;24.26;47.39;99082.53;5020374;28;19913;-80
2022/07/14 06:29:47;;;;;;;;;;;;;;;24.23;47.45;99080.44;5022264;28;19945;-78
2022/07/14 06:32:12;;;;;;;;;;;;;;;24.25;47.68;99080.13;5021748;28;19942;-78
2022/07/14 06:34:37;;;;;;;;;;;;;;;24.25;47.43;99077.38;5020788;28;20279;-80
2022/07/14 06:37:02;;;;;;;;;;;;;;;24.22;47.73;99078.03;5020881;28;19980;-77
2022/07/14 06:39:28;;;;;;;;;;;;;;;24.26;47.94;99070.81;5020715;28;19920;-79
2022/07/14 06:41:53;;;;;;;;;;;;;;;24.26;47.51;99076.28;5020841;28;20388;-80
2022/07/14 06:44:18;;;;;;;;;;;;;;;24.28;47.76;99074.06;5020606;28;20405;-77
2022/07/14 06:46:44;;;;;;;;;;;;;;;24.28;47.92;99077.56;5020919;28;20057;-79
2022/07/14 06:49:09;;;;;;;;;;;;;;;24.31;47.75;99076.97;5020286;28;20007;-79
2022/07/14 06:51:34;;;;;;;;;;;;;;;24.30;47.83;99071.81;5003198;28;19936;-78
2022/07/14 06:53:59;;;;;;;;;;;;;;;24.34;47.70;99073.63;5002567;28;19913;-79
2022/07/14 06:56:25;;;;;;;;;;;;;;;24.32;47.97;99075.06;5020935;28;19924;-80
2022/07/14 06:58:50;;;;;;;;;;;;;;;24.37;48.04;99069.47;5020544;28;20276;-80
2022/07/14 07:01:15;;;;;;;;;;;;;;;24.40;47.85;99077.00;5003339;28;19913;-78
2022/07/14 07:03:40;;;;;;;;;;;;;;;24.36;48.05;99076.03;5020609;28;19924;-78
2022/07/14 07:08:51;;;;;;;;;;;;;;;24.38;48.25;99071.84;5020513;28;19919;-80
2022/07/14 07:11:16;;;;;;;;;;;;;;;24.32;48.34;99070.41;5019898;28;19914;-76
2022/07/14 07:13:42;;;;;;;;;;;;;;;24.40;47.93;99063.38;5020858;28;19914;-79
2022/07/14 07:16:07;;;;;;;;;;;;;;;24.26;48.36;99065.38;5020939;28;20284;-79
2022/07/14 07:18:33;;;;;;;;;;;;;;;24.19;48.68;99061.13;5017329;28;20352;-81
2022/07/14 07:20:58;;;;;;;;;;;;;;;24.08;48.98;99059.78;5015482;28;20348;-78
2022/07/14 07:23:24;;;;;;;;;;;;;;;24.16;48.50;99061.78;5015450;28;19914;-78
2022/07/14 07:25:49;;;;;;;;;;;;;;;24.19;48.75;99061.13;5015280;28;20391;-81
2022/07/14 07:28:14;;;;;;;;;;;;;;;24.13;49.15;99065.13;5015445;28;19917;-79
2022/07/14 07:30:40;;;;;;;;;;;;;;;24.20;48.88;99061.97;5015132;28;19913;-78
2022/07/14 07:33:05;;;;;;;;;;;;;;;24.14;49.06;99055.81;5015218;28;19914;-81
2022/07/14 07:35:30;;;;;;;;;;;;;;;24.35;48.73;99058.84;5015287;28;19913;-78
2022/07/14 07:37:56;;;;;;;;;;;;;;;24.41;48.01;99053.25;5015105;28;19968;-78
2022/07/14 07:40:21;;;;;;;;;;;;;;;24.27;48.46;99053.34;5015103;28;19969;-80
2022/07/14 07:42:46;;;;;;;;;;;;;;;24.22;48.87;99054.25;5014602;28;20296;-80
2022/07/14 07:45:11;;;;;;;;;;;;;;;24.31;48.68;99057.84;5015076;28;19913;-77
2022/07/14 07:47:37;;;;;;;;;;;;;;;24.43;48.23;99057.28;5017546;28;19923;-78
2022/07/14 07:50:02;;;;;;;;;;;;;;;24.43;48.30;99054.56;5019468;28;19913;-79
2022/07/14 07:52:27;;;;;;;;;;;;;;;24.38;48.60;99060.94;5019252;28;20302;-81
2022/07/14 07:54:53;;;;;;;;;;;;;;;24.27;48.46;99058.81;5018774;28;19920;-78
2022/07/14 07:57:18;;;;;;;;;;;;;;;24.18;48.88;99067.72;5019044;28;20352;-78
2022/07/14 07:59:43;;;;;;;;;;;;;;;24.34;48.60;99064.63;5018564;28;19967;-81
2022/07/14 08:02:09;;;;;;;;;;;;;;;24.40;48.28;99062.56;5001581;28;20340;-76
2022/07/14 08:04:34;;;;;;;;;;;;;;;24.57;47.77;99064.63;5018414;28;20368;-78
2022/07/14 08:06:59;;;;;;;;;;;;;;;24.58;47.87;99067.03;5018874;28;19925;-79
2022/07/14 08:09:25;;;;;;;;;;;;;;;24.58;47.61;99074.41;5019061;28;19913;-79
2022/07/14 08:11:50;;;;;;;;;;;;;;;24.60;47.79;99064.00;5018551;28;20414;-78
2022/07/14 08:16:59;;;;;;;;;;;;;;;24.61;47.37;99066.44;5018500;28;19920;-78
2022/07/14 08:19:24;;;;;;;;;;;;;;;24.65;47.19;99064.66;5000888;28;19913;-79
2022/07/14 08:21:50;;;;;;;;;;;;;;;24.68;47.24;99060.50;5018004;28;19913;-80
2022/07/14 08:24:16;;;;;;;;;;;;;;;24.69;47.21;99062.13;5017843;28;19914;-77
2022/07/14 08:26:47;;;;;;;;;;;;;;;24.63;46.98;99057.91;5018055;28;19920;-79
2022/07/14 08:29:13;;;;;;;;;;;;;;;24.68;47.01;99058.59;5018612;28;20387;-79
2022/07/14 08:31:38;;;;;;;;;;;;;;;24.65;47.18;99050.22;5018375;28;19914;-82
2022/07/14 08:34:03;;;;;;;;;;;;;;;24.65;47.22;99047.47;5018635;28;20043;-78
2022/07/14 08:36:29;;;;;;;;;;;;;;;24.67;46.88;99043.31;5017731;28;20352;-78
2022/07/14 08:38:54;;;;;;;;;;;;;;;24.71;46.81;99043.47;5018050;28;19914;-79
2022/07/14 08:41:19;;;;;;;;;;;;;;;24.72;46.92;99040.44;5018173;28;19917;-81
2022/07/14 08:43:45;;;;;;;;;;;;;;;24.72;46.86;99036.91;5017900;28;20340;-79
2022/07/14 08:46:10;;;;;;;;;;;;;;;24.75;46.70;99039.00;5018060;28;19920;-79
2022/07/14 08:48:36;;;;;;;;;;;;;;;24.54;47.43;99034.09;5016705;28;20257;-80
2022/07/14 08:51:01;;;;;;;;;;;;;;;24.60;47.11;99031.22;5017248;28;19920;-82
2022/07/14 08:53:26;;;;;;;;;;;;;;;24.59;47.30;99035.88;5018317;28;19955;-79
2022/07/14 08:55:52;;;;;;;;;;;;;;;24.69;46.84;99032.06;5018326;28;19913;-79
2022/07/14 08:58:17;;;;;;;;;;;;;;;24.76;46.56;99034.34;5017571;28;19942;-82
2022/07/14 09:00:42;;;;;;;;;;;;;;;24.77;46.38;99039.50;5017996;28;19920;-79
2022/07/14 09:03:07;;;;;;;;;;;;;;;24.77;46.42;99042.22;5017125;28;20407;-79
2022/07/14 09:05:33;;;;;;;;;;;;;;;24.76;46.73;99026.16;5019450;28;19918;-80
2022/07/14 09:07:58;;;;;;;;;;;;;;;24.82;46.32;99028.44;5017887;28;20348;-81
2022/07/14 09:10:24;;;;;;;;;;;;;;;24.81;46.43;99026.81;5018890;28;20391;-80
2022/07/14 09:12:49;;;;;;;;;;;;;;;24.74;46.83;99031.94;5018556;28;19913;-79
2022/07/14 09:17:59;;;;;;;;;;;;;;;24.69;46.71;99024.66;5018590;28;19920;-78
2022/07/14 09:20:28;;;;;;;;;;;;;;;24.69;46.80;99026.59;5018797;28;20004;-80
2022/07/14 09:22:57;;;;;;;;;;;;;;;24.67;46.67;99016.00;5018743;28;19964;-82
2022/07/14 09:25:23;;;;;;;;;;;;;;;24.73;46.54;99016.66;5018861;28;19936;-80
2022/07/14 09:27:48;;;;;;;;;;;;;;;24.73;46.55;99011.19;5019335;28;20356;-78
2022/07/14 09:30:14;;;;;;;;;;;;;;;24.73;46.51;99016.66;5017258;28;19914;-79
2022/07/14 09:32:50;;;;;;;;;;;;;;;24.70;46.62;99018.09;5019142;28;19913;-82
2022/07/14 09:35:17;;;;;;;;;;;;;;;24.71;46.81;99014.22;5019697;28;19964;-81
2022/07/14 09:37:42;;;;;;;;;;;;;;;24.56;47.15;99006.47;5019558;28;19952;-79
2022/07/14 09:40:11;;;;;;;;;;;;;;;24.47;47.41;99006.38;5018751;28;19913;-78
2022/07/14 09:42:47;;;;;;;;;;;;;;;24.48;47.20;99018.13;5018854;28;19924;-79
2022/07/14 09:45:16;;;;;;;;;;;;;;;24.45;47.56;99013.28;4979382;28;19918;-80
2022/07/14 09:47:50;;;;;;;;;;;;;;;24.48;47.34;99016.19;4978307;28;19968;-83
2022/07/14 09:50:36;;;;;;;;;;;;;;;24.36;47.68;99026.88;4977234;28;20017;-79
2022/07/14 09:53:12;;;;;;;;;;;;;;;24.32;47.81;99036.84;4967740;28;19914;-82
2022/07/14 09:55:39;;;;;;;;;;;;;;;24.26;48.04;99054.44;4978157;28;19921;-81
2022/07/14 09:58:05;;;;;;;;;;;;;;;24.16;48.36;99058.22;4977910;28;20004;-82
2022/07/14 10:00:30;;;;;;;;;;;;;;;24.18;48.25;99053.25;4976994;28;19945;-79
2022/07/14 10:02:57;;;;;;;;;;;;;;;24.18;48.11;99065.00;4979684;28;19918;-76
2022/07/14 10:05:22;;;;;;;;;;;;;;;24.06;48.42;99070.22;4983841;28;19918;-80
2022/07/14 10:07:47;;;;;;;;;;;;;;;24.14;48.20;99057.75;4983039;28;20249;-79
2022/07/14 10:10:13;;;;;;;;;;;;;;;24.33;47.46;99063.00;4980184;28;19918;-77
2022/07/14 10:12:38;;;;;;;;;;;;;;;24.21;47.61;99057.31;4982613;28;20315;-78
2022/07/14 10:15:12;;;;;;;;;;;;;;;24.10;47.90;99057.56;4981755;28;19920;-78
2022/07/14 10:17:39;;;;;;;;;;;;;;;24.16;47.66;99050.88;4981883;28;20383;-78
2022/07/14 10:20:06;;;;;;;;;;;;;;;24.22;47.55;99053.47;4982660;28;19945;-79
2022/07/14 10:22:31;;;;;;;;;;;;;;;24.19;47.39;99058.41;4981559;28;19992;-78
2022/07/14 10:24:56;;;;;;;;;;;;;;;24.22;47.36;99058.94;4981617;28;20004;-77
2022/07/14 10:27:22;;;;;;;;;;;;;;;24.24;47.17;99057.50;4981654;28;20387;-80
2022/07/14 10:29:48;;;;;;;;;;;;;;;24.28;47.06;99057.66;4982221;28;20284;-80
2022/07/14 10:32:22;;;;;;;;;;;;;;;24.28;46.99;99057.66;4982996;28;19914;-80
2022/07/14 10:34:53;;;;;;;;;;;;;;;24.24;46.88;99056.69;4981507;28;20016;-80
2022/07/14 10:37:22;;;;;;;;;;;;;;;24.38;46.65;99049.22;4982533;28;19921;-80
2022/07/14 10:39:54;;;;;;;;;;;;;;;24.48;46.56;99051.69;4982154;28;19914;-80
2022/07/14 10:42:38;;;;;;;;;;;;;;;24.65;46.26;99044.75;4984573;28;19968;-80
2022/07/14 10:45:05;;;;;;;;;;;;;;;24.60;46.38;99050.34;5017754;28;19921;-79
2022/07/14 10:47:49;;;;;;;;;;;;;;;24.69;46.12;99056.66;5016852;28;19940;-82
2022/07/14 10:50:21;;;;;;;;;;;;;;;24.61;46.23;99041.03;4998774;28;20339;-82
2022/07/14 10:52:50;;;;;;;;;;;;;;;24.64;46.06;99040.41;5016522;28;19917;-81
2022/07/14 10:55:16;;;;;;;;;;;;;;;24.57;46.27;99042.78;5015783;28;20434;-80
2022/07/14 10:58:00;;;;;;;;;;;;;;;24.65;45.97;99034.63;5016005;28;20000;-78
2022/07/14 11:00:40;;;;;;;;;;;;;;;24.51;46.50;99040.16;5020355;28;19960;-80
2022/07/14 11:03:17;;;;;;;;;;;;;;;24.59;46.04;99035.06;5019792;28;19913;-79
2022/07/14 11:05:58;;;;;;;;;;;;;;;24.58;46.24;99030.72;5019897;28;19921;-80
2022/07/14 11:08:23;;;;;;;;;;;;;;;24.64;46.06;99033.00;5018377;28;20371;-80
2022/07/14 11:10:49;;;;;;;;;;;;;;;24.65;45.96;99037.34;5018601;28;19914;-78
2022/07/14 11:13:17;;;;;;;;;;;;;;;24.58;45.89;99038.91;5020682;28;19921;-80
2022/07/14 11:15:43;;;;;;;;;;;;;;;24.60;46.00;99037.50;5019026;28;19913;-79
2022/07/14 11:18:21;;;;;;;;;;;;;;;24.64;46.02;99037.66;5019770;28;20266;-80
2022/07/14 11:20:46;;;;;;;;;;;;;;;24.65;45.54;99033.81;5019957;28;19920;-82
2022/07/14 11:23:15;;;;;;;;;;;;;;;24.61;45.76;99032.81;5018326;28;19913;-79
2022/07/14 11:25:40;;;;;;;;;;;;;;;24.63;45.44;99038.78;5015179;28;19914;-79
2022/07/14 11:28:06;;;;;;;;;;;;;;;24.66;45.62;99038.16;4997429;28;20020;-79
2022/07/14 11:30:31;;;;;;;;;;;;;;;24.74;45.14;99032.72;4997393;28;20283;-79
2022/07/14 11:33:17;;;;;;;;;;;;;;;24.74;45.23;99031.94;5014840;28;19947;-81
2022/07/14 11:38:28;;;;;;;;;;;;;;;24.70;45.15;99033.69;5018704;28;20385;-79
2022/07/14 11:40:53;;;;;;;;;;;;;;;24.81;45.14;99035.00;5020417;28;19914;-82
2022/07/14 11:43:27;;;;;;;;;;;;;;;24.80;45.23;99035.31;5015249;28;19918;-82
2022/07/14 11:46:03;;;;;;;;;;;;;;;24.74;44.65;99038.19;5001180;28;19913;-83
2022/07/14 11:48:31;;;;;;;;;;;;;;;24.72;44.88;99039.63;5001048;28;19964;-82
2022/07/14 11:51:10;;;;;;;;;;;;;;;24.75;44.40;99039.00;5002406;28;19913;-84
2022/07/14 11:53:35;;;;;;;;;;;;;;;24.79;44.55;99039.97;5001108;28;19960;-83
2022/07/14 11:56:01;;;;;;;;;;;;;;;24.80;44.47;99030.69;4997264;28;19914;-80
2022/07/14 11:58:26;;;;;;;;;;;;;;;24.83;44.56;99035.50;4998926;28;19918;-80
2022/07/14 12:00:55;;;;;;;;;;;;;;;24.88;43.85;99020.88;4998884;28;19914;-83
2022/07/14 12:03:21;;;;;;;;;;;;;;;24.85;44.09;99027.81;4998233;28;19913;-82
2022/07/14 12:05:50;;;;;;;;;;;;;;;24.84;44.10;99019.94;4999194;28;20258;-85
2022/07/14 12:08:15;;;;;;;;;;;;;;;24.84;43.88;99023.44;4999148;28;19948;-80
2022/07/14 12:10:41;;;;;;;;;;;;;;;24.87;43.75;99025.56;4997900;28;19913;-81
2022/07/14 12:13:06;;;;;;;;;;;;;;;24.89;43.63;99026.03;4999026;28;19913;-83
2022/07/14 12:15:32;;;;;;;;;;;;;;;24.81;43.93;99026.81;4997304;28;19953;-81
2022/07/14 12:18:00;;;;;;;;;;;;;;;24.80;44.19;99029.84;4999091;28;19972;-81
2022/07/14 12:20:26;;;;;;;;;;;;;;;24.85;43.63;99022.34;4998563;28;19914;-79
2022/07/14 12:22:52;;;;;;;;;;;;;;;24.90;43.25;99027.63;4998088;28;20300;-76
2022/07/14 12:25:24;;;;;;;;;;;;;;;24.95;42.67;99026.69;4998325;28;20383;-79
2022/07/14 12:27:50;;;;;;;;;;;;;;;24.87;42.02;99022.81;4998657;28;19917;-79
2022/07/14 12:30:15;;;;;;;;;;;;;;;24.85;42.64;99027.81;4998355;28;19937;-79
2022/07/14 12:32:40;;;;;;;;;;;;;;;24.92;42.27;99024.59;4997829;28;19956;-79
2022/07/14 12:35:06;;;;;;;;;;;;;;;24.90;42.17;99024.09;5000167;28;19921;-79
2022/07/14 12:37:31;;;;;;;;;;;;;;;24.87;42.15;99024.72;4999959;28;19914;-80
2022/07/14 12:39:56;;;;;;;;;;;;;;;24.86;42.37;99032.13;5001752;28;20324;-76
2022/07/14 12:42:21;;;;;;;;;;;;;;;24.90;41.79;99022.16;5003198;28;20047;-77
2022/07/14 12:45:00;;;;;;;;;;;;;;;24.90;41.25;99030.38;5002958;28;19932;-80
2022/07/14 12:47:25;;;;;;;;;;;;;;;24.95;41.05;99029.44;5021313;28;19921;-79
2022/07/14 12:49:51;;;;;;;;;;;;;;;24.92;40.41;99033.63;5004376;28;19914;-79
2022/07/14 12:52:16;;;;;;;;;;;;;;;24.91;40.49;99037.47;5020564;28;19913;-80
2022/07/14 12:54:42;;;;;;;;;;;;;;;24.98;40.18;99022.53;5019966;28;20279;-81
2022/07/14 12:57:07;;;;;;;;;;;;;;;24.93;40.81;99018.81;5019753;28;20027;-79
2022/07/14 12:59:36;;;;;;;;;;;;;;;24.92;40.06;99027.31;5019836;28;19993;-77